sensor_id;sensor_type;location;lat;lon;timestamp;pressure;altitude;pressure_sealevel;temperature;humidity
44103;BME280;29769;42.178;24.742;2023-07-13T00:00:31;99652.56;;;23.32;100.00
44103;BME280;29769;42.178;24.742;2023-07-13T00:03:16;99661.81;;;23.28;100.00
44103;BME280;29769;42.178;24.742;2023-07-13T00:06:01;99656.75;;;23.36;100.00
44103;BME280;29769;42.178;24.742;2023-07-13T00:08:47;99646.47;;;23.42;100.00
44103;BME280;29769;42.178;24.742;2023-07-13T00:11:33;99652.63;;;23.44;100.00
44103;BME280;29769;42.178;24.742;2023-07-13T00:14:18;99649.47;;;23.38;100.00
44103;BME280;29769;42.178;24.742;2023-07-13T00:17:03;99656.75;;;23.36;100.00
44103;BME280;29769;42.178;24.742;2023-07-13T00:19:47;99653.03;;;23.38;100.00
44103;BME280;29769;42.178;24.742;2023-07-13T00:22:32;99646.78;;;23.38;100.00
44103;BME280;29769;42.178;24.742;2023-07-13T00:25:17;99648.59;;;23.25;100.00
44103;BME280;29769;42.178;24.742;2023-07-13T00:28:01;99645.38;;;23.20;100.00
44103;BME280;29769;42.178;24.742;2023-07-13T00:30:46;99643.22;;;23.25;100.00
44103;BME280;29769;42.178;24.742;2023-07-13T00:33:31;99642.13;;;23.15;100.00
44103;BME280;29769;42.178;24.742;2023-07-13T00:36:16;99640.31;;;23.15;100.00
44103;BME280;29769;42.178;24.742;2023-07-13T00:39:01;99634.84;;;23.17;100.00
44103;BME280;29769;42.178;24.742;2023-07-13T00:41:45;99629.25;;;23.20;100.00
44103;BME280;29769;42.178;24.742;2023-07-13T00:44:30;99626.59;;;23.20;100.00
44103;BME280;29769;42.178;24.742;2023-07-13T00:47:15;99631.81;;;23.09;100.00
44103;BME280;29769;42.178;24.742;2023-07-13T00:50:00;99637.66;;;22.88;100.00
44103;BME280;29769;42.178;24.742;2023-07-13T00:52:54;99633.28;;;22.73;100.00
44103;BME280;29769;42.178;24.742;2023-07-13T00:55:39;99632.81;;;22.67;100.00
44103;BME280;29769;42.178;24.742;2023-07-13T00:58:24;99631.25;;;22.77;100.00
44103;BME280;29769;42.178;24.742;2023-07-13T01:01:09;99627.13;;;22.85;100.00
44103;BME280;29769;42.178;24.742;2023-07-13T01:03:53;99627.56;;;22.92;100.00
44103;BME280;29769;42.178;24.742;2023-07-13T01:06:38;99631.56;;;22.99;100.00
44103;BME280;29769;42.178;24.742;2023-07-13T01:09:25;99626.09;;;23.00;100.00
44103;BME280;29769;42.178;24.742;2023-07-13T01:12:10;99612.69;;;23.00;100.00
44103;BME280;29769;42.178;24.742;2023-07-13T01:14:59;99615.91;;;23.05;100.00
44103;BME280;29769;42.178;24.742;2023-07-13T01:17:44;99612.28;;;23.07;100.00
44103;BME280;29769;42.178;24.742;2023-07-13T01:20:28;99615.53;;;23.12;100.00
44103;BME280;29769;42.178;24.742;2023-07-13T01:23:13;99624.44;;;23.12;100.00
44103;BME280;29769;42.178;24.742;2023-07-13T01:25:58;99620.44;;;23.18;100.00
44103;BME280;29769;42.178;24.742;2023-07-13T01:28:43;99619.59;;;23.17;100.00
44103;BME280;29769;42.178;24.742;2023-07-13T01:31:27;99629.66;;;23.14;100.00
44103;BME280;29769;42.178;24.742;2023-07-13T01:34:12;99619.38;;;23.08;100.00
44103;BME280;29769;42.178;24.742;2023-07-13T01:36:57;99625.66;;;22.94;100.00
44103;BME280;29769;42.178;24.742;2023-07-13T01:39:41;99624.28;;;22.74;100.00
44103;BME280;29769;42.178;24.742;2023-07-13T01:42:29;99628.59;;;22.62;100.00
44103;BME280;29769;42.178;24.742;2023-07-13T01:45:14;99626.00;;;22.48;100.00
44103;BME280;29769;42.178;24.742;2023-07-13T01:47:59;99635.44;;;22.40;100.00
44103;BME280;29769;42.178;24.742;2023-07-13T01:50:44;99622.34;;;22.35;100.00
44103;BME280;29769;42.178;24.742;2023-07-13T01:53:28;99624.28;;;22.33;100.00
44103;BME280;29769;42.178;24.742;2023-07-13T01:56:13;99629.94;;;22.29;100.00
44103;BME280;29769;42.178;24.742;2023-07-13T01:58:59;99636.81;;;22.33;100.00
44103;BME280;29769;42.178;24.742;2023-07-13T02:01:43;99636.53;;;22.37;100.00
44103;BME280;29769;42.178;24.742;2023-07-13T02:04:28;99636.22;;;22.42;100.00
44103;BME280;29769;42.178;24.742;2023-07-13T02:07:12;99637.16;;;22.55;100.00
44103;BME280;29769;42.178;24.742;2023-07-13T02:09:57;99645.22;;;22.41;100.00
44103;BME280;29769;42.178;24.742;2023-07-13T02:12:41;99640.88;;;22.26;100.00
44103;BME280;29769;42.178;24.742;2023-07-13T02:15:26;99644.38;;;22.26;100.00
44103;BME280;29769;42.178;24.742;2023-07-13T02:18:11;99647.91;;;22.27;100.00
44103;BME280;29769;42.178;24.742;2023-07-13T02:21:00;99649.56;;;22.15;100.00
44103;BME280;29769;42.178;24.742;2023-07-13T02:23:45;99649.88;;;22.10;100.00
44103;BME280;29769;42.178;24.742;2023-07-13T02:26:29;99651.31;;;22.16;100.00
44103;BME280;29769;42.178;24.742;2023-07-13T02:29:14;99654.66;;;22.20;100.00
44103;BME280;29769;42.178;24.742;2023-07-13T02:31:58;99655.59;;;22.18;100.00
44103;BME280;29769;42.178;24.742;2023-07-13T02:34:43;99658.06;;;22.22;100.00
44103;BME280;29769;42.178;24.742;2023-07-13T02:37:27;99654.06;;;22.29;100.00
44103;BME280;29769;42.178;24.742;2023-07-13T02:40:12;99655.78;;;22.30;100.00
44103;BME280;29769;42.178;24.742;2023-07-13T02:42:56;99655.00;;;22.28;100.00
44103;BME280;29769;42.178;24.742;2023-07-13T02:45:44;99655.97;;;22.27;100.00
44103;BME280;29769;42.178;24.742;2023-07-13T02:48:29;99656.75;;;22.29;100.00
44103;BME280;29769;42.178;24.742;2023-07-13T02:51:14;99666.03;;;22.23;100.00
44103;BME280;29769;42.178;24.742;2023-07-13T02:53:58;99666.97;;;22.08;100.00
44103;BME280;29769;42.178;24.742;2023-07-13T02:56:43;99666.22;;;22.06;100.00
44103;BME280;29769;42.178;24.742;2023-07-13T02:59:28;99666.22;;;22.06;100.00
44103;BME280;29769;42.178;24.742;2023-07-13T03:02:12;99675.13;;;22.06;100.00
44103;BME280;29769;42.178;24.742;2023-07-13T03:04:58;99666.88;;;21.95;100.00
44103;BME280;29769;42.178;24.742;2023-07-13T03:07:43;99663.50;;;21.92;100.00
44103;BME280;29769;42.178;24.742;2023-07-13T03:10:28;99673.34;;;21.91;100.00
44103;BME280;29769;42.178;24.742;2023-07-13T03:13:14;99680.66;;;21.89;100.00
44103;BME280;29769;42.178;24.742;2023-07-13T03:15:58;99672.13;;;21.83;100.00
44103;BME280;29769;42.178;24.742;2023-07-13T03:18:43;99674.50;;;21.73;100.00
44103;BME280;29769;42.178;24.742;2023-07-13T03:21:29;99663.31;;;21.66;100.00
44103;BME280;29769;42.178;24.742;2023-07-13T03:24:14;99659.00;;;21.64;100.00
44103;BME280;29769;42.178;24.742;2023-07-13T03:27:04;99660.53;;;21.68;100.00
44103;BME280;29769;42.178;24.742;2023-07-13T03:29:49;99652.13;;;21.74;100.00
44103;BME280;29769;42.178;24.742;2023-07-13T03:32:36;99650.19;;;21.76;100.00
44103;BME280;29769;42.178;24.742;2023-07-13T03:35:20;99650.97;;;21.78;100.00
44103;BME280;29769;42.178;24.742;2023-07-13T03:38:05;99662.84;;;21.74;100.00
44103;BME280;29769;42.178;24.742;2023-07-13T03:40:49;99659.78;;;21.66;100.00
44103;BME280;29769;42.178;24.742;2023-07-13T03:43:34;99658.25;;;21.62;100.00
44103;BME280;29769;42.178;24.742;2023-07-13T03:46:19;99651.81;;;21.64;100.00
44103;BME280;29769;42.178;24.742;2023-07-13T03:49:04;99657.47;;;21.74;100.00
44103;BME280;29769;42.178;24.742;2023-07-13T03:51:49;99653.06;;;21.73;100.00
44103;BME280;29769;42.178;24.742;2023-07-13T03:54:33;99660.75;;;21.79;100.00
44103;BME280;29769;42.178;24.742;2023-07-13T03:57:19;99671.75;;;21.89;100.00
44103;BME280;29769;42.178;24.742;2023-07-13T04:00:05;99672.06;;;21.98;100.00
44103;BME280;29769;42.178;24.742;2023-07-13T04:03:00;99668.34;;;22.15;100.00
44103;BME280;29769;42.178;24.742;2023-07-13T04:05:45;99670.72;;;22.20;100.00
44103;BME280;29769;42.178;24.742;2023-07-13T04:08:32;99675.50;;;22.29;100.00
44103;BME280;29769;42.178;24.742;2023-07-13T04:11:19;99669.19;;;22.30;100.00
44103;BME280;29769;42.178;24.742;2023-07-13T04:14:04;99672.03;;;22.41;100.00
44103;BME280;29769;42.178;24.742;2023-07-13T04:16:49;99678.53;;;22.51;100.00
44103;BME280;29769;42.178;24.742;2023-07-13T04:19:33;99678.88;;;22.59;100.00
44103;BME280;29769;42.178;24.742;2023-07-13T04:22:18;99683.28;;;22.60;100.00
44103;BME280;29769;42.178;24.742;2023-07-13T04:25:03;99688.75;;;22.73;100.00
44103;BME280;29769;42.178;24.742;2023-07-13T04:27:49;99682.69;;;22.83;100.00
44103;BME280;29769;42.178;24.742;2023-07-13T04:30:34;99687.41;;;23.07;100.00
44103;BME280;29769;42.178;24.742;2023-07-13T04:33:19;99685.41;;;23.23;100.00
44103;BME280;29769;42.178;24.742;2023-07-13T04:36:06;99686.66;;;23.44;100.00
44103;BME280;29769;42.178;24.742;2023-07-13T04:38:53;99677.69;;;23.70;100.00
44103;BME280;29769;42.178;24.742;2023-07-13T04:41:38;99684.34;;;23.90;100.00
44103;BME280;29769;42.178;24.742;2023-07-13T04:44:23;99686.81;;;24.06;100.00
44103;BME280;29769;42.178;24.742;2023-07-13T04:47:07;99687.94;;;24.16;100.00
44103;BME280;29769;42.178;24.742;2023-07-13T04:49:52;99685.84;;;24.32;100.00
44103;BME280;29769;42.178;24.742;2023-07-13T04:52:36;99694.66;;;24.47;100.00
44103;BME280;29769;42.178;24.742;2023-07-13T04:55:21;99695.28;;;24.50;100.00
44103;BME280;29769;42.178;24.742;2023-07-13T04:58:06;99693.47;;;24.51;100.00
44103;BME280;29769;42.178;24.742;2023-07-13T05:00:51;99688.03;;;24.63;100.00
44103;BME280;29769;42.178;24.742;2023-07-13T05:03:36;99693.03;;;24.80;100.00
44103;BME280;29769;42.178;24.742;2023-07-13T05:06:20;99693.44;;;25.00;100.00
44103;BME280;29769;42.178;24.742;2023-07-13T05:09:05;99689.25;;;25.19;100.00
44103;BME280;29769;42.178;24.742;2023-07-13T05:11:51;99689.09;;;25.45;100.00
44103;BME280;29769;42.178;24.742;2023-07-13T05:14:36;99690.31;;;25.64;100.00
44103;BME280;29769;42.178;24.742;2023-07-13T05:17:21;99691.19;;;25.76;100.00
44103;BME280;29769;42.178;24.742;2023-07-13T05:20:06;99688.53;;;25.87;100.00
44103;BME280;29769;42.178;24.742;2023-07-13T05:22:51;99689.88;;;26.04;100.00
44103;BME280;29769;42.178;24.742;2023-07-13T05:25:35;99693.84;;;26.22;100.00
44103;BME280;29769;42.178;24.742;2023-07-13T05:28:21;99699.94;;;26.13;100.00
44103;BME280;29769;42.178;24.742;2023-07-13T05:31:09;99692.63;;;26.26;100.00
44103;BME280;29769;42.178;24.742;2023-07-13T05:33:53;99702.19;;;26.41;100.00
44103;BME280;29769;42.178;24.742;2023-07-13T05:36:38;99696.06;;;26.62;100.00
44103;BME280;29769;42.178;24.742;2023-07-13T05:39:22;99698.34;;;26.77;100.00
44103;BME280;29769;42.178;24.742;2023-07-13T05:42:07;99698.22;;;26.68;100.00
44103;BME280;29769;42.178;24.742;2023-07-13T05:44:52;99699.13;;;26.46;100.00
44103;BME280;29769;42.178;24.742;2023-07-13T05:47:37;99690.13;;;26.68;100.00
44103;BME280;29769;42.178;24.742;2023-07-13T05:50:22;99694.56;;;26.69;100.00
44103;BME280;29769;42.178;24.742;2023-07-13T05:53:06;99695.53;;;26.68;100.00
44103;BME280;29769;42.178;24.742;2023-07-13T05:55:51;99695.16;;;26.72;100.00
44103;BME280;29769;42.178;24.742;2023-07-13T05:58:38;99691.59;;;26.83;100.00
44103;BME280;29769;42.178;24.742;2023-07-13T06:01:22;99689.38;;;26.99;100.00
44103;BME280;29769;42.178;24.742;2023-07-13T06:04:08;99690.88;;;27.24;100.00
44103;BME280;29769;42.178;24.742;2023-07-13T06:06:52;99701.34;;;27.49;100.00
44103;BME280;29769;42.178;24.742;2023-07-13T06:09:37;99691.28;;;27.72;100.00
44103;BME280;29769;42.178;24.742;2023-07-13T06:12:23;99701.94;;;27.94;100.00
44103;BME280;29769;42.178;24.742;2023-07-13T06:15:07;99701.31;;;28.02;100.00
44103;BME280;29769;42.178;24.742;2023-07-13T06:17:52;99701.03;;;28.05;100.00
44103;BME280;29769;42.178;24.742;2023-07-13T06:20:36;99704.56;;;28.16;100.00
44103;BME280;29769;42.178;24.742;2023-07-13T06:23:22;99696.91;;;28.31;100.00
44103;BME280;29769;42.178;24.742;2023-07-13T06:26:06;99695.97;;;28.42;100.00
44103;BME280;29769;42.178;24.742;2023-07-13T06:28:51;99695.41;;;28.78;100.00
44103;BME280;29769;42.178;24.742;2023-07-13T06:31:37;99687.06;;;29.00;100.00
44103;BME280;29769;42.178;24.742;2023-07-13T06:34:21;99687.31;;;28.88;100.00
44103;BME280;29769;42.178;24.742;2023-07-13T06:37:06;99681.63;;;29.00;100.00
44103;BME280;29769;42.178;24.742;2023-07-13T06:39:50;99679.94;;;29.09;99.01
44103;BME280;29769;42.178;24.742;2023-07-13T06:42:34;99674.78;;;28.96;99.94
44103;BME280;29769;42.178;24.742;2023-07-13T06:45:19;99674.28;;;29.31;97.38
44103;BME280;29769;42.178;24.742;2023-07-13T06:48:04;99671.00;;;29.47;94.59
44103;BME280;29769;42.178;24.742;2023-07-13T06:50:49;99672.97;;;29.64;95.16
44103;BME280;29769;42.178;24.742;2023-07-13T06:53:37;99676.09;;;29.69;92.01
44103;BME280;29769;42.178;24.742;2023-07-13T06:56:21;99675.97;;;29.71;91.56
44103;BME280;29769;42.178;24.742;2023-07-13T06:59:06;99671.34;;;30.00;89.94
44103;BME280;29769;42.178;24.742;2023-07-13T07:01:51;99670.66;;;29.98;90.09
44103;BME280;29769;42.178;24.742;2023-07-13T07:04:35;99671.66;;;29.97;85.00
44103;BME280;29769;42.178;24.742;2023-07-13T07:07:23;99678.50;;;30.01;82.75
44103;BME280;29769;42.178;24.742;2023-07-13T07:10:08;99674.88;;;30.20;81.55
44103;BME280;29769;42.178;24.742;2023-07-13T07:12:52;99673.47;;;30.53;78.14
44103;BME280;29769;42.178;24.742;2023-07-13T07:15:37;99679.19;;;30.77;68.58
44103;BME280;29769;42.178;24.742;2023-07-13T07:18:21;99678.19;;;30.78;66.36
44103;BME280;29769;42.178;24.742;2023-07-13T07:21:06;99670.22;;;30.94;63.68
44103;BME280;29769;42.178;24.742;2023-07-13T07:23:50;99667.16;;;31.07;61.56
44103;BME280;29769;42.178;24.742;2023-07-13T07:26:35;99666.31;;;31.24;60.51
44103;BME280;29769;42.178;24.742;2023-07-13T07:29:21;99664.09;;;30.92;58.76
44103;BME280;29769;42.178;24.742;2023-07-13T07:32:06;99668.84;;;31.08;59.73
44103;BME280;29769;42.178;24.742;2023-07-13T07:34:51;99664.72;;;31.39;58.94
44103;BME280;29769;42.178;24.742;2023-07-13T07:37:35;99656.19;;;31.52;57.29
44103;BME280;29769;42.178;24.742;2023-07-13T07:40:20;99665.44;;;31.41;56.92
44103;BME280;29769;42.178;24.742;2023-07-13T07:43:06;99656.34;;;31.68;55.49
44103;BME280;29769;42.178;24.742;2023-07-13T07:45:50;99649.63;;;31.80;55.28
44103;BME280;29769;42.178;24.742;2023-07-13T07:48:35;99648.19;;;31.50;54.62
44103;BME280;29769;42.178;24.742;2023-07-13T07:51:19;99655.97;;;31.63;54.80
44103;BME280;29769;42.178;24.742;2023-07-13T07:54:04;99650.19;;;31.84;54.75
44103;BME280;29769;42.178;24.742;2023-07-13T07:56:49;99646.75;;;31.82;53.99
44103;BME280;29769;42.178;24.742;2023-07-13T07:59:33;99655.56;;;32.01;53.54
44103;BME280;29769;42.178;24.742;2023-07-13T08:02:18;99646.72;;;32.25;51.80
44103;BME280;29769;42.178;24.742;2023-07-13T08:05:03;99639.88;;;32.55;49.37
44103;BME280;29769;42.178;24.742;2023-07-13T08:07:47;99641.56;;;32.56;48.45
44103;BME280;29769;42.178;24.742;2023-07-13T08:10:34;99640.84;;;32.80;48.39
44103;BME280;29769;42.178;24.742;2023-07-13T08:13:19;99630.53;;;33.24;47.07
44103;BME280;29769;42.178;24.742;2023-07-13T08:16:04;99630.03;;;33.44;45.62
44103;BME280;29769;42.178;24.742;2023-07-13T08:18:49;99632.59;;;33.78;44.39
44103;BME280;29769;42.178;24.742;2023-07-13T08:21:34;99618.41;;;33.91;42.92
44103;BME280;29769;42.178;24.742;2023-07-13T08:24:21;99630.66;;;34.03;42.07
44103;BME280;29769;42.178;24.742;2023-07-13T08:27:06;99631.19;;;33.99;42.48
44103;BME280;29769;42.178;24.742;2023-07-13T08:29:51;99628.25;;;34.24;43.04
44103;BME280;29769;42.178;24.742;2023-07-13T08:32:35;99632.16;;;34.22;40.08
44103;BME280;29769;42.178;24.742;2023-07-13T08:35:20;99629.50;;;33.98;40.15
44103;BME280;29769;42.178;24.742;2023-07-13T08:52:29;99609.47;;;34.68;37.93
44103;BME280;29769;42.178;24.742;2023-07-13T08:55:19;99608.25;;;34.71;38.87
44103;BME280;29769;42.178;24.742;2023-07-13T08:58:16;99605.03;;;34.90;38.12
44103;BME280;29769;42.178;24.742;2023-07-13T09:12:55;99597.56;;;35.90;36.87
44103;BME280;29769;42.178;24.742;2023-07-13T09:15:45;99576.66;;;35.59;35.72
44103;BME280;29769;42.178;24.742;2023-07-13T09:18:37;99573.13;;;35.74;35.58
44103;BME280;29769;42.178;24.742;2023-07-13T09:21:30;99592.47;;;36.31;35.82
44103;BME280;29769;42.178;24.742;2023-07-13T09:27:28;99579.00;;;37.43;33.17
44103;BME280;29769;42.178;24.742;2023-07-13T09:32:59;99569.97;;;38.87;31.76
44103;BME280;29769;42.178;24.742;2023-07-13T09:35:44;99560.41;;;40.21;29.93
44103;BME280;29769;42.178;24.742;2023-07-13T09:38:29;99554.84;;;41.66;28.17
44103;BME280;29769;42.178;24.742;2023-07-13T09:41:26;99557.66;;;42.76;26.37
44103;BME280;29769;42.178;24.742;2023-07-13T09:44:15;99544.34;;;43.14;24.34
44103;BME280;29769;42.178;24.742;2023-07-13T09:47:01;99547.00;;;42.61;24.56
44103;BME280;29769;42.178;24.742;2023-07-13T09:49:47;99537.50;;;42.98;25.00
44103;BME280;29769;42.178;24.742;2023-07-13T09:52:48;99527.41;;;43.57;23.24
44103;BME280;29769;42.178;24.742;2023-07-13T09:55:38;99528.88;;;44.46;22.39
44103;BME280;29769;42.178;24.742;2023-07-13T09:58:26;99521.81;;;45.62;21.41
44103;BME280;29769;42.178;24.742;2023-07-13T10:01:13;99524.38;;;44.85;20.91
44103;BME280;29769;42.178;24.742;2023-07-13T10:03:58;99515.41;;;44.38;20.62
44103;BME280;29769;42.178;24.742;2023-07-13T10:06:44;99515.19;;;44.68;21.20
44103;BME280;29769;42.178;24.742;2023-07-13T10:09:29;99507.63;;;42.77;22.84
44103;BME280;29769;42.178;24.742;2023-07-13T10:12:14;99503.81;;;43.55;22.22
44103;BME280;29769;42.178;24.742;2023-07-13T10:15:00;99483.94;;;43.93;21.24
44103;BME280;29769;42.178;24.742;2023-07-13T10:17:46;99514.00;;;45.59;20.14
44103;BME280;29769;42.178;24.742;2023-07-13T10:20:31;99513.91;;;46.74;19.22
44103;BME280;29769;42.178;24.742;2023-07-13T10:23:24;99505.53;;;46.74;18.70
44103;BME280;29769;42.178;24.742;2023-07-13T10:26:16;99513.91;;;46.31;19.14
44103;BME280;29769;42.178;24.742;2023-07-13T10:29:10;99501.31;;;47.62;17.95
44103;BME280;29769;42.178;24.742;2023-07-13T10:31:56;99496.94;;;48.29;17.25
44103;BME280;29769;42.178;24.742;2023-07-13T10:34:45;99493.66;;;47.48;18.12
44103;BME280;29769;42.178;24.742;2023-07-13T10:40:35;99483.31;;;48.37;17.45
44103;BME280;29769;42.178;24.742;2023-07-13T10:43:42;99482.59;;;48.82;16.97
44103;BME280;29769;42.178;24.742;2023-07-13T10:46:28;99477.19;;;49.97;16.13
44103;BME280;29769;42.178;24.742;2023-07-13T10:49:16;99479.84;;;50.82;15.80
44103;BME280;29769;42.178;24.742;2023-07-13T10:52:02;99475.81;;;51.27;15.29
44103;BME280;29769;42.178;24.742;2023-07-13T10:54:47;99468.66;;;51.97;14.79
44103;BME280;29769;42.178;24.742;2023-07-13T10:57:42;99467.78;;;52.20;14.55
44103;BME280;29769;42.178;24.742;2023-07-13T11:00:31;99448.81;;;49.19;15.69
44103;BME280;29769;42.178;24.742;2023-07-13T11:03:19;99457.41;;;47.90;16.51
44103;BME280;29769;42.178;24.742;2023-07-13T11:06:11;99448.81;;;49.24;15.83
44103;BME280;29769;42.178;24.742;2023-07-13T11:09:00;99446.50;;;50.41;15.25
44103;BME280;29769;42.178;24.742;2023-07-13T11:12:07;99444.59;;;48.86;16.25
44103;BME280;29769;42.178;24.742;2023-07-13T11:17:54;99451.16;;;48.20;16.70
44103;BME280;29769;42.178;24.742;2023-07-13T11:20:45;99440.50;;;47.17;16.96
44103;BME280;29769;42.178;24.742;2023-07-13T11:23:42;99442.31;;;46.21;17.40
44103;BME280;29769;42.178;24.742;2023-07-13T11:29:37;99429.50;;;45.55;18.07
44103;BME280;29769;42.178;24.742;2023-07-13T11:32:30;99429.03;;;45.25;18.21
44103;BME280;29769;42.178;24.742;2023-07-13T11:35:23;99432.00;;;46.43;16.79
44103;BME280;29769;42.178;24.742;2023-07-13T11:38:21;99429.63;;;47.58;16.08
44103;BME280;29769;42.178;24.742;2023-07-13T11:41:15;99434.00;;;49.19;15.37
44103;BME280;29769;42.178;24.742;2023-07-13T11:44:14;99424.50;;;49.15;15.71
44103;BME280;29769;42.178;24.742;2023-07-13T11:47:08;99418.88;;;48.64;16.12
44103;BME280;29769;42.178;24.742;2023-07-13T11:49:55;99405.47;;;48.66;16.15
44103;BME280;29769;42.178;24.742;2023-07-13T11:52:44;99426.16;;;49.46;15.88
44103;BME280;29769;42.178;24.742;2023-07-13T11:55:28;99413.56;;;48.57;16.17
44103;BME280;29769;42.178;24.742;2023-07-13T11:58:17;99396.19;;;47.58;17.09
44103;BME280;29769;42.178;24.742;2023-07-13T12:01:02;99397.13;;;48.86;16.38
44103;BME280;29769;42.178;24.742;2023-07-13T12:03:52;99408.78;;;46.86;16.95
44103;BME280;29769;42.178;24.742;2023-07-13T12:06:37;99394.84;;;48.33;16.15
44103;BME280;29769;42.178;24.742;2023-07-13T12:09:27;99395.75;;;49.09;15.76
44103;BME280;29769;42.178;24.742;2023-07-13T12:12:13;99391.81;;;49.00;15.94
44103;BME280;29769;42.178;24.742;2023-07-13T12:14:59;99385.41;;;49.20;15.72
44103;BME280;29769;42.178;24.742;2023-07-13T12:17:44;99379.25;;;49.13;15.95
44103;BME280;29769;42.178;24.742;2023-07-13T12:20:37;99377.66;;;50.35;15.46
44103;BME280;29769;42.178;24.742;2023-07-13T12:26:09;99370.22;;;47.42;16.68
44103;BME280;29769;42.178;24.742;2023-07-13T12:28:56;99366.88;;;48.12;16.46
44103;BME280;29769;42.178;24.742;2023-07-13T12:31:44;99356.66;;;48.69;16.06
44103;BME280;29769;42.178;24.742;2023-07-13T12:34:29;99359.47;;;48.84;15.89
44103;BME280;29769;42.178;24.742;2023-07-13T12:37:14;99359.66;;;49.28;15.65
44103;BME280;29769;42.178;24.742;2023-07-13T12:40:00;99356.25;;;49.51;15.60
44103;BME280;29769;42.178;24.742;2023-07-13T12:42:50;99343.38;;;49.60;15.79
44103;BME280;29769;42.178;24.742;2023-07-13T12:45:36;99348.03;;;49.80;15.50
44103;BME280;29769;42.178;24.742;2023-07-13T12:48:21;99348.56;;;50.31;15.31
44103;BME280;29769;42.178;24.742;2023-07-13T12:51:10;99345.81;;;49.72;15.51
44103;BME280;29769;42.178;24.742;2023-07-13T12:53:58;99333.19;;;48.49;16.12
44103;BME280;29769;42.178;24.742;2023-07-13T12:56:50;99347.41;;;48.98;15.96
44103;BME280;29769;42.178;24.742;2023-07-13T12:59:37;99342.09;;;50.36;14.89
44103;BME280;29769;42.178;24.742;2023-07-13T13:02:29;99329.28;;;50.63;14.35
44103;BME280;29769;42.178;24.742;2023-07-13T13:05:15;99326.06;;;50.80;14.38
44103;BME280;29769;42.178;24.742;2023-07-13T13:08:00;99327.41;;;51.40;14.25
44103;BME280;29769;42.178;24.742;2023-07-13T13:10:45;99321.28;;;51.38;15.35
44103;BME280;29769;42.178;24.742;2023-07-13T13:13:30;99329.44;;;52.01;15.39
44103;BME280;29769;42.178;24.742;2023-07-13T13:16:35;99335.19;;;51.91;15.56
44103;BME280;29769;42.178;24.742;2023-07-13T13:19:24;99331.09;;;51.60;15.64
44103;BME280;29769;42.178;24.742;2023-07-13T13:22:09;99333.19;;;51.49;15.46
44103;BME280;29769;42.178;24.742;2023-07-13T13:24:54;99328.38;;;50.34;15.90
44103;BME280;29769;42.178;24.742;2023-07-13T13:27:40;99316.41;;;49.15;16.63
44103;BME280;29769;42.178;24.742;2023-07-13T13:30:26;99306.53;;;47.76;17.60
44103;BME280;29769;42.178;24.742;2023-07-13T13:33:12;99302.75;;;48.17;17.30
44103;BME280;29769;42.178;24.742;2023-07-13T13:35:57;99300.41;;;47.84;17.65
44103;BME280;29769;42.178;24.742;2023-07-13T13:38:42;99301.50;;;47.16;17.70
44103;BME280;29769;42.178;24.742;2023-07-13T13:41:27;99297.72;;;45.73;19.20
44103;BME280;29769;42.178;24.742;2023-07-13T13:44:15;99288.13;;;46.12;19.00
44103;BME280;29769;42.178;24.742;2023-07-13T13:47:01;99279.66;;;45.75;19.30
44103;BME280;29769;42.178;24.742;2023-07-13T13:49:47;99279.06;;;44.53;19.66
44103;BME280;29769;42.178;24.742;2023-07-13T13:52:31;99277.56;;;44.45;19.71
44103;BME280;29769;42.178;24.742;2023-07-13T13:55:19;99279.09;;;44.69;19.38
44103;BME280;29769;42.178;24.742;2023-07-13T13:58:04;99280.63;;;45.15;18.96
44103;BME280;29769;42.178;24.742;2023-07-13T14:00:49;99276.09;;;45.31;19.01
44103;BME280;29769;42.178;24.742;2023-07-13T14:03:35;99275.94;;;45.21;18.38
44103;BME280;29769;42.178;24.742;2023-07-13T14:06:20;99263.19;;;44.48;18.90
44103;BME280;29769;42.178;24.742;2023-07-13T14:09:10;99270.09;;;44.79;18.89
44103;BME280;29769;42.178;24.742;2023-07-13T14:11:55;99255.13;;;44.47;19.52
44103;BME280;29769;42.178;24.742;2023-07-13T14:14:42;99263.81;;;44.34;19.80
44103;BME280;29769;42.178;24.742;2023-07-13T14:17:27;99256.69;;;43.93;20.25
44103;BME280;29769;42.178;24.742;2023-07-13T14:20:12;99252.41;;;43.73;20.65
44103;BME280;29769;42.178;24.742;2023-07-13T14:22:57;99242.38;;;43.44;20.51
44103;BME280;29769;42.178;24.742;2023-07-13T14:25:43;99251.41;;;42.99;21.20
44103;BME280;29769;42.178;24.742;2023-07-13T14:28:28;99248.28;;;43.08;21.14
44103;BME280;29769;42.178;24.742;2023-07-13T14:31:15;99244.16;;;42.98;21.00
44103;BME280;29769;42.178;24.742;2023-07-13T14:34:01;99249.50;;;43.40;20.60
44103;BME280;29769;42.178;24.742;2023-07-13T14:36:48;99243.94;;;42.53;21.28
44103;BME280;29769;42.178;24.742;2023-07-13T14:39:33;99248.06;;;42.51;21.32
44103;BME280;29769;42.178;24.742;2023-07-13T14:42:18;99250.09;;;43.02;20.67
44103;BME280;29769;42.178;24.742;2023-07-13T14:45:12;99246.78;;;43.28;20.44
44103;BME280;29769;42.178;24.742;2023-07-13T14:47:57;99250.50;;;43.46;20.54
44103;BME280;29769;42.178;24.742;2023-07-13T14:50:42;99241.91;;;42.95;20.94
44103;BME280;29769;42.178;24.742;2023-07-13T14:53:27;99249.59;;;42.93;21.43
44103;BME280;29769;42.178;24.742;2023-07-13T14:56:12;99214.09;;;43.02;20.80
44103;BME280;29769;42.178;24.742;2023-07-13T14:58:57;99245.16;;;42.81;21.39
44103;BME280;29769;42.178;24.742;2023-07-13T15:01:42;99239.88;;;42.91;21.41
44103;BME280;29769;42.178;24.742;2023-07-13T15:04:27;99239.44;;;42.17;21.35
44103;BME280;29769;42.178;24.742;2023-07-13T15:07:12;99242.03;;;41.89;21.68